Terminal Aerodrome Forecast
Issued by NWS

Home | Current Version | Previous Version | Text Only | Print | Product List | Glossary On
Versions: 1 2 3 4 5 6 7 8 9 10 11 12
000
FTUS42 KGSP 292300
TAFGMU
TAF
KGMU 292331Z 3000/3024 09007KT P6SM SKC
     FM300500 00000KT P6SM FEW050
     FM301800 17006KT P6SM FEW060
     FM302200 16006KT P6SM BKN060=

USA.gov is the U.S. government's official web portal to all federal, state and local government web resources and services.